createdAt,value
2023-06-29T00:00:18.022Z,13.59
2023-06-29T00:02:19.577Z,13.46
2023-06-29T00:04:22.690Z,13.44
2023-06-29T00:06:24.648Z,13.32
2023-06-29T00:08:27.327Z,13.27
2023-06-29T00:10:30.022Z,13.22
2023-06-29T00:12:31.702Z,13.30
2023-06-29T00:14:33.896Z,13.27
2023-06-29T00:16:36.237Z,13.31
2023-06-29T00:18:37.734Z,13.29
2023-06-29T00:20:40.154Z,13.22
2023-06-29T00:22:48.962Z,13.24
2023-06-29T00:24:57.837Z,13.30
2023-06-29T00:26:59.384Z,13.35
2023-06-29T00:29:02.981Z,13.37
2023-06-29T00:31:05.022Z,13.34
2023-06-29T00:33:06.701Z,13.22
2023-06-29T00:35:10.254Z,13.20
2023-06-29T00:37:12.050Z,13.24
2023-06-29T00:39:13.588Z,13.27
2023-06-29T00:41:15.439Z,13.23
2023-06-29T00:43:19.019Z,13.25
2023-06-29T00:45:20.743Z,13.19
2023-06-29T00:47:22.636Z,13.11
2023-06-29T00:49:24.322Z,13.15
2023-06-29T00:51:26.968Z,13.16
2023-06-29T00:53:28.563Z,13.18
2023-06-29T00:55:30.416Z,13.11
2023-06-29T00:57:33.656Z,13.06
2023-06-29T00:59:36.640Z,13.02
2023-06-29T01:01:40.490Z,13.06
2023-06-29T01:03:43.284Z,13.04
2023-06-29T01:05:46.839Z,12.97
2023-06-29T01:08:06.807Z,12.98
2023-06-29T01:10:11.731Z,13.05
2023-06-29T01:12:14.846Z,13.07
2023-06-29T01:14:18.352Z,13.03
2023-06-29T01:16:22.606Z,13.02
2023-06-29T01:18:25.377Z,13.02
2023-06-29T01:20:28.255Z,12.95
2023-06-29T01:22:38.069Z,12.93
2023-06-29T01:24:41.302Z,12.92
2023-06-29T01:26:43.263Z,12.93
2023-06-29T01:28:44.831Z,12.96
2023-06-29T01:30:50.569Z,12.96
2023-06-29T01:32:53.231Z,12.92
2023-06-29T01:34:55.940Z,12.77
2023-06-29T01:37:19.803Z,12.83
2023-06-29T01:39:24.774Z,12.76
2023-06-29T01:41:27.436Z,12.78
2023-06-29T01:43:30.287Z,12.79
2023-06-29T01:45:34.246Z,12.81
2023-06-29T01:47:36.641Z,12.75
2023-06-29T01:49:38.810Z,12.64
2023-06-29T01:51:40.516Z,12.68
2023-06-29T01:53:42.305Z,12.71
2023-06-29T01:55:44.129Z,12.68
2023-06-29T01:57:46.243Z,12.72
2023-06-29T01:59:48.437Z,12.64
2023-06-29T02:01:50.120Z,12.57
2023-06-29T02:03:51.722Z,12.63
2023-06-29T02:05:53.391Z,12.63
2023-06-29T02:07:55.026Z,12.45
2023-06-29T02:09:56.713Z,12.50
2023-06-29T02:11:59.674Z,12.59
2023-06-29T02:14:01.341Z,12.59
2023-06-29T02:16:03.043Z,12.62
2023-06-29T02:18:04.653Z,12.58
2023-06-29T02:20:10.173Z,12.51
2023-06-29T02:22:12.987Z,12.56
2023-06-29T02:24:16.461Z,12.57
2023-06-29T02:26:18.555Z,12.60
2023-06-29T02:28:20.246Z,12.55
2023-06-29T02:30:21.971Z,12.54
2023-06-29T02:32:24.197Z,12.46
2023-06-29T02:34:26.041Z,12.41
2023-06-29T02:36:28.414Z,12.21
2023-06-29T02:38:30.024Z,12.28
2023-06-29T02:40:31.802Z,12.31
2023-06-29T02:42:33.965Z,12.30
2023-06-29T02:44:35.942Z,12.32
2023-06-29T02:46:37.651Z,12.33
2023-06-29T02:48:39.226Z,12.38
2023-06-29T02:50:41.122Z,12.44
2023-06-29T02:52:43.014Z,12.44
2023-06-29T02:54:44.747Z,12.36
2023-06-29T02:56:46.580Z,12.25
2023-06-29T02:58:48.243Z,12.32
2023-06-29T03:00:56.046Z,12.36
2023-06-29T03:02:57.876Z,12.31
2023-06-29T03:05:00.256Z,12.19
2023-06-29T03:07:03.022Z,12.20
2023-06-29T03:09:05.525Z,12.26
2023-06-29T03:11:06.994Z,12.28
2023-06-29T03:13:08.554Z,12.26
2023-06-29T03:15:10.661Z,12.25
2023-06-29T03:17:14.443Z,12.25
2023-06-29T03:19:16.018Z,12.08
2023-06-29T03:21:20.621Z,12.16
2023-06-29T03:23:22.513Z,12.22
2023-06-29T03:25:24.320Z,12.22
2023-06-29T03:27:25.885Z,12.17
2023-06-29T03:29:28.135Z,12.26
2023-06-29T03:31:29.839Z,12.25
2023-06-29T03:33:31.501Z,12.20
2023-06-29T03:35:33.207Z,12.19
2023-06-29T03:37:34.893Z,12.10
2023-06-29T03:39:36.471Z,12.09
2023-06-29T03:41:38.048Z,12.20
2023-06-29T03:43:39.701Z,12.15
2023-06-29T03:45:41.511Z,12.16
2023-06-29T03:47:43.314Z,12.19
2023-06-29T03:49:45.415Z,12.25
2023-06-29T03:51:46.955Z,12.23
2023-06-29T03:53:48.530Z,12.18
2023-06-29T03:55:50.203Z,12.21
2023-06-29T03:57:52.034Z,12.27
2023-06-29T03:59:53.636Z,12.28
2023-06-29T04:01:55.386Z,12.33
2023-06-29T04:03:57.063Z,12.41
2023-06-29T04:05:58.730Z,12.50
2023-06-29T04:08:05.235Z,12.54
2023-06-29T04:10:07.326Z,12.54
2023-06-29T04:12:09.238Z,12.69
2023-06-29T04:14:10.808Z,12.74
2023-06-29T04:16:12.526Z,12.88
2023-06-29T04:18:14.182Z,12.96
2023-06-29T04:20:15.880Z,12.94
2023-06-29T04:22:17.988Z,12.98
2023-06-29T04:24:19.639Z,13.08
2023-06-29T04:26:28.961Z,13.23
2023-06-29T04:28:33.623Z,13.26
2023-06-29T04:30:37.507Z,13.34
2023-06-29T04:32:40.493Z,13.42
2023-06-29T04:34:42.266Z,13.57
2023-06-29T04:36:47.103Z,13.68
2023-06-29T04:38:48.992Z,13.76
2023-06-29T04:40:50.664Z,13.86
2023-06-29T04:42:58.134Z,13.91
2023-06-29T04:45:01.519Z,14.01
2023-06-29T04:47:04.062Z,14.12
2023-06-29T04:49:07.490Z,14.24
2023-06-29T04:51:09.439Z,14.37
2023-06-29T04:53:13.483Z,14.51
2023-06-29T04:55:15.123Z,14.71
2023-06-29T04:57:16.701Z,14.86
2023-06-29T04:59:18.299Z,15.01
2023-06-29T05:01:20.034Z,15.07
2023-06-29T05:03:21.729Z,15.17
2023-06-29T05:05:23.786Z,15.28
2023-06-29T05:07:25.937Z,15.46
2023-06-29T05:09:27.557Z,15.61
2023-06-29T05:11:29.300Z,15.75
2023-06-29T05:13:30.915Z,15.91
2023-06-29T05:15:32.711Z,16.08
2023-06-29T05:17:35.611Z,16.25
2023-06-29T05:19:37.475Z,16.39
2023-06-29T05:21:39.029Z,16.53
2023-06-29T05:23:40.853Z,16.63
2023-06-29T05:25:43.277Z,16.79
2023-06-29T05:27:45.124Z,16.90
2023-06-29T05:29:46.658Z,17.03
2023-06-29T05:31:48.300Z,17.17
2023-06-29T05:33:50.277Z,17.33
2023-06-29T05:35:52.827Z,17.48
2023-06-29T05:37:54.385Z,17.63
2023-06-29T05:39:57.694Z,17.73
2023-06-29T05:41:59.233Z,17.88
2023-06-29T05:44:00.960Z,17.99
2023-06-29T05:46:02.802Z,18.18
2023-06-29T05:48:04.988Z,18.34
2023-06-29T05:50:07.423Z,18.42
2023-06-29T05:52:09.113Z,18.54
2023-06-29T05:54:11.209Z,18.73
2023-06-29T05:56:12.822Z,18.83
2023-06-29T05:58:14.357Z,18.95
2023-06-29T06:00:16.601Z,19.12
2023-06-29T06:02:20.819Z,19.24
2023-06-29T06:04:22.634Z,19.39
2023-06-29T06:06:24.334Z,19.53
2023-06-29T06:08:25.892Z,19.67
2023-06-29T06:10:27.545Z,19.80
2023-06-29T06:12:29.436Z,19.94
2023-06-29T06:14:31.278Z,20.03
2023-06-29T06:16:32.975Z,20.20
2023-06-29T06:18:34.663Z,20.34
2023-06-29T06:20:36.324Z,20.47
2023-06-29T06:22:37.951Z,20.60
2023-06-29T06:24:39.862Z,20.70
2023-06-29T06:26:41.929Z,20.79
2023-06-29T06:28:43.426Z,20.90
2023-06-29T06:30:45.238Z,20.97
2023-06-29T06:32:47.007Z,21.05
2023-06-29T06:34:51.604Z,21.20
2023-06-29T06:36:53.269Z,21.32
2023-06-29T06:38:54.835Z,21.43
2023-06-29T06:40:56.376Z,21.59
2023-06-29T06:42:59.819Z,21.77
2023-06-29T06:45:05.148Z,21.88
2023-06-29T06:47:07.070Z,22.01
2023-06-29T06:49:09.024Z,22.13
2023-06-29T06:51:10.634Z,22.23
2023-06-29T06:53:12.507Z,22.38
2023-06-29T06:55:14.099Z,22.44
2023-06-29T06:57:15.785Z,22.59
2023-06-29T06:59:17.295Z,22.66
2023-06-29T07:01:23.178Z,22.74
2023-06-29T07:03:27.230Z,22.82
2023-06-29T07:05:29.142Z,22.95
2023-06-29T07:07:31.395Z,23.05
2023-06-29T07:09:33.244Z,23.18
2023-06-29T07:11:37.143Z,23.26
2023-06-29T07:13:38.935Z,23.21
2023-06-29T07:15:40.576Z,23.36
2023-06-29T07:17:42.183Z,23.47
2023-06-29T07:25:57.434Z,23.72
2023-06-29T07:27:59.205Z,23.81
2023-06-29T07:30:00.832Z,23.84
2023-06-29T07:32:02.911Z,23.84
2023-06-29T07:34:04.668Z,23.80
2023-06-29T07:36:06.516Z,23.82
2023-06-29T07:38:08.294Z,23.97
2023-06-29T07:40:10.292Z,23.98
2023-06-29T07:42:11.913Z,24.01
2023-06-29T07:44:13.640Z,24.12
2023-06-29T07:46:15.521Z,23.99
2023-06-29T07:48:18.390Z,24.16
2023-06-29T07:50:20.982Z,24.28
2023-06-29T07:52:23.876Z,24.44
2023-06-29T07:54:25.480Z,24.60
2023-06-29T07:58:39.172Z,24.65
2023-06-29T07:58:48.968Z,24.82
2023-06-29T08:00:51.701Z,25.03
2023-06-29T08:02:53.809Z,24.90
2023-06-29T08:07:00.103Z,24.85
2023-06-29T08:09:01.964Z,24.81
2023-06-29T08:11:03.670Z,24.97
2023-06-29T08:13:06.193Z,24.61
2023-06-29T08:15:08.391Z,24.84
2023-06-29T08:17:09.956Z,25.10
2023-06-29T08:19:11.639Z,24.66
2023-06-29T08:21:13.559Z,24.68
2023-06-29T08:23:15.654Z,24.59
2023-06-29T08:25:17.340Z,24.85
2023-06-29T08:27:20.586Z,24.79
2023-06-29T08:29:22.300Z,25.12
2023-06-29T08:31:23.921Z,25.17
2023-06-29T08:33:25.686Z,25.40
2023-06-29T08:35:27.501Z,25.41
2023-06-29T08:37:29.399Z,24.96
2023-06-29T08:39:31.190Z,24.87
2023-06-29T08:41:32.913Z,25.05
2023-06-29T08:43:34.578Z,25.23
2023-06-29T08:45:36.114Z,25.07
2023-06-29T08:47:39.479Z,25.28
2023-06-29T08:49:43.299Z,25.59
2023-06-29T08:51:49.812Z,25.77
2023-06-29T08:53:53.220Z,26.07
2023-06-29T08:55:54.879Z,26.31
2023-06-29T08:57:56.470Z,26.57
2023-06-29T09:00:00.872Z,26.93
2023-06-29T09:02:04.540Z,26.13
2023-06-29T09:04:06.965Z,26.30
2023-06-29T09:06:10.861Z,26.63
2023-06-29T09:08:13.014Z,27.00
2023-06-29T09:10:16.215Z,27.25
2023-06-29T09:12:18.588Z,27.44
2023-06-29T09:14:20.339Z,27.49
2023-06-29T09:16:29.511Z,27.75
2023-06-29T09:18:33.499Z,28.12
2023-06-29T09:20:47.384Z,28.47
2023-06-29T09:22:53.099Z,28.26
2023-06-29T09:25:09.989Z,28.03
2023-06-29T09:27:14.793Z,27.44
2023-06-29T09:29:17.679Z,27.35
2023-06-29T09:31:19.371Z,27.07
2023-06-29T09:33:26.256Z,26.68
2023-06-29T09:35:29.934Z,26.65
2023-06-29T09:37:31.554Z,26.72
2023-06-29T09:39:33.444Z,26.55
2023-06-29T09:41:51.704Z,26.51
2023-06-29T09:43:54.008Z,26.45
2023-06-29T09:46:09.377Z,26.15
2023-06-29T09:50:22.628Z,25.81
2023-06-29T09:52:24.588Z,25.99
2023-06-29T09:54:26.473Z,26.23
2023-06-29T09:56:28.222Z,26.64
2023-06-29T09:58:31.001Z,27.06
2023-06-29T10:00:33.285Z,27.33
2023-06-29T10:02:35.008Z,27.37
2023-06-29T10:04:36.982Z,27.42
2023-06-29T10:06:44.853Z,27.63
2023-06-29T10:08:51.209Z,27.97
2023-06-29T10:10:56.996Z,28.22
2023-06-29T10:12:59.224Z,28.14
2023-06-29T10:15:10.050Z,27.93
2023-06-29T10:17:55.028Z,27.09
2023-06-29T10:19:58.702Z,27.07
2023-06-29T10:22:07.782Z,27.01
2023-06-29T10:24:14.117Z,27.15
2023-06-29T10:26:16.981Z,27.21
2023-06-29T10:28:20.344Z,27.15
2023-06-29T10:30:24.972Z,27.07
2023-06-29T10:32:38.528Z,27.17
2023-06-29T10:35:03.056Z,27.41
2023-06-29T10:37:05.848Z,27.47
2023-06-29T10:39:39.887Z,27.42
2023-06-29T10:41:42.231Z,27.31
2023-06-29T10:44:01.197Z,27.38
2023-06-29T10:46:02.793Z,27.53
2023-06-29T10:48:06.190Z,27.47
2023-06-29T10:50:11.628Z,27.18
2023-06-29T10:52:24.109Z,27.03
2023-06-29T10:54:26.455Z,26.95
2023-06-29T10:56:31.978Z,26.82
2023-06-29T10:58:38.866Z,26.53
2023-06-29T11:00:41.495Z,26.18
2023-06-29T11:02:43.227Z,26.04
2023-06-29T11:04:44.972Z,25.40
2023-06-29T11:06:46.699Z,25.55
2023-06-29T11:08:48.871Z,26.14
2023-06-29T11:10:52.040Z,26.75
2023-06-29T11:12:56.800Z,27.31
2023-06-29T11:15:18.427Z,27.89
2023-06-29T11:17:20.357Z,27.77
2023-06-29T11:19:27.300Z,27.74
2023-06-29T11:21:28.877Z,27.77
2023-06-29T11:23:30.431Z,27.76
2023-06-29T11:25:32.753Z,27.73
2023-06-29T11:27:34.336Z,27.43
2023-06-29T11:29:35.889Z,27.32
2023-06-29T11:31:37.499Z,27.25
2023-06-29T11:33:47.652Z,27.43
2023-06-29T11:35:49.320Z,27.78
2023-06-29T11:37:57.174Z,28.18
2023-06-29T11:39:58.985Z,28.26
2023-06-29T11:42:01.974Z,28.57
2023-06-29T11:44:03.916Z,28.96
2023-06-29T11:46:06.655Z,29.08
2023-06-29T11:48:08.681Z,29.21
2023-06-29T11:50:11.634Z,29.07
2023-06-29T11:52:13.313Z,28.65
2023-06-29T11:54:15.181Z,28.16
2023-06-29T11:56:36.406Z,28.29
2023-06-29T11:58:38.174Z,28.58
2023-06-29T12:00:39.771Z,28.63
2023-06-29T12:02:41.987Z,28.84
2023-06-29T12:05:00.875Z,28.53
2023-06-29T12:07:03.355Z,28.45
2023-06-29T12:09:12.781Z,28.34
2023-06-29T12:11:22.865Z,28.35
2023-06-29T12:13:25.009Z,28.16
2023-06-29T12:15:28.951Z,27.90
2023-06-29T12:19:38.813Z,27.60
2023-06-29T12:21:45.500Z,27.63
2023-06-29T12:23:47.862Z,27.30
2023-06-29T12:25:53.364Z,27.35
2023-06-29T12:27:55.323Z,27.42
2023-06-29T12:29:56.904Z,27.48
2023-06-29T12:32:01.965Z,27.57
2023-06-29T12:34:04.253Z,27.37
2023-06-29T12:36:05.698Z,27.38
2023-06-29T12:38:07.643Z,27.40
2023-06-29T12:40:09.634Z,27.45
2023-06-29T12:42:11.385Z,27.24
2023-06-29T12:44:13.112Z,26.98
2023-06-29T12:46:15.206Z,27.02
2023-06-29T12:48:17.068Z,26.97
2023-06-29T12:50:19.887Z,26.98
2023-06-29T12:52:21.613Z,26.92
2023-06-29T12:54:23.201Z,26.85
2023-06-29T12:56:26.381Z,26.87
2023-06-29T12:58:28.224Z,26.72
2023-06-29T13:00:29.929Z,26.36
2023-06-29T13:02:32.947Z,26.42
2023-06-29T13:04:36.816Z,26.28
2023-06-29T13:06:41.946Z,26.07
2023-06-29T13:08:44.592Z,26.04
2023-06-29T13:10:46.456Z,25.99
2023-06-29T13:12:48.100Z,26.01
2023-06-29T13:14:53.562Z,25.99
2023-06-29T13:16:58.109Z,25.95
2023-06-29T13:18:59.663Z,25.82
2023-06-29T13:21:01.762Z,25.83
2023-06-29T13:23:03.340Z,25.73
2023-06-29T13:25:05.379Z,25.65
2023-06-29T13:27:07.601Z,25.71
2023-06-29T13:29:09.072Z,25.74
2023-06-29T13:31:10.754Z,25.78
2023-06-29T13:33:12.479Z,25.78
2023-06-29T13:35:14.112Z,25.74
2023-06-29T13:37:16.709Z,25.58
2023-06-29T13:39:18.369Z,25.51
2023-06-29T13:41:21.412Z,25.36
2023-06-29T13:43:23.500Z,25.24
2023-06-29T13:45:25.281Z,25.26
2023-06-29T13:47:26.953Z,25.09
2023-06-29T13:49:28.608Z,25.05
2023-06-29T13:51:31.859Z,24.98
2023-06-29T13:53:33.456Z,24.83
2023-06-29T13:55:35.068Z,24.67
2023-06-29T13:57:36.659Z,24.63
2023-06-29T13:59:38.653Z,24.57
2023-06-29T14:01:41.610Z,24.59
2023-06-29T14:03:43.339Z,24.51
2023-06-29T14:05:45.241Z,24.50
2023-06-29T14:07:47.239Z,24.51
2023-06-29T14:09:48.785Z,24.51
2023-06-29T14:11:53.055Z,24.52
2023-06-29T14:13:56.594Z,24.53
2023-06-29T14:15:59.460Z,24.64
2023-06-29T14:18:01.293Z,24.61
2023-06-29T14:20:03.062Z,24.62
2023-06-29T14:22:06.811Z,24.58
2023-06-29T14:24:11.140Z,24.58
2023-06-29T14:26:12.993Z,24.69
2023-06-29T14:28:14.540Z,24.69
2023-06-29T14:30:16.251Z,24.72
2023-06-29T14:32:18.019Z,24.75
2023-06-29T14:34:20.014Z,24.87
2023-06-29T14:36:21.620Z,25.09
2023-06-29T14:38:23.819Z,25.39
2023-06-29T14:40:25.832Z,25.45
2023-06-29T14:42:27.832Z,25.53
2023-06-29T14:44:29.717Z,25.62
2023-06-29T14:46:31.679Z,25.80
2023-06-29T14:48:33.603Z,25.74
2023-06-29T14:50:35.478Z,25.71
2023-06-29T14:52:38.991Z,25.73
2023-06-29T14:54:40.987Z,25.93
2023-06-29T14:56:42.654Z,26.21
2023-06-29T14:58:44.695Z,26.33
2023-06-29T15:00:46.296Z,26.79
2023-06-29T15:02:48.843Z,27.02
2023-06-29T15:04:50.468Z,27.16
2023-06-29T15:06:53.866Z,27.46
2023-06-29T15:08:56.609Z,27.58
2023-06-29T15:10:58.152Z,27.80
2023-06-29T15:12:59.879Z,27.89
2023-06-29T15:15:02.752Z,27.93
2023-06-29T15:17:06.146Z,28.12
2023-06-29T15:19:07.852Z,28.13
2023-06-29T15:21:09.436Z,27.99
2023-06-29T15:23:11.400Z,28.00
2023-06-29T15:25:13.651Z,27.93
2023-06-29T15:27:15.273Z,27.70
2023-06-29T15:29:16.928Z,27.65
2023-06-29T15:31:18.553Z,27.63
2023-06-29T15:33:20.366Z,27.48
2023-06-29T15:35:22.841Z,27.21
2023-06-29T15:37:25.023Z,27.05
2023-06-29T15:39:26.822Z,26.80
2023-06-29T15:41:28.436Z,26.48
2023-06-29T15:43:30.048Z,26.32
2023-06-29T15:45:31.668Z,26.14
2023-06-29T15:47:34.455Z,26.02
2023-06-29T15:49:37.522Z,25.94
2023-06-29T15:51:39.168Z,25.79
2023-06-29T15:53:40.744Z,25.84
2023-06-29T15:55:42.371Z,25.80
2023-06-29T15:57:43.995Z,25.76
2023-06-29T15:59:46.208Z,25.67
2023-06-29T16:01:47.890Z,25.69
2023-06-29T16:03:49.890Z,25.75
2023-06-29T16:05:51.946Z,25.59
2023-06-29T16:07:54.063Z,25.72
2023-06-29T16:09:56.275Z,25.69
2023-06-29T16:11:57.895Z,25.78
2023-06-29T16:13:59.439Z,25.85
2023-06-29T16:16:01.053Z,25.80
2023-06-29T16:18:02.649Z,25.89
2023-06-29T16:20:04.794Z,25.86
2023-06-29T16:22:07.745Z,25.72
2023-06-29T16:24:09.308Z,25.72
2023-06-29T16:26:10.884Z,25.65
2023-06-29T16:28:12.509Z,25.59
2023-06-29T16:30:14.101Z,25.58
2023-06-29T16:32:16.297Z,25.53
2023-06-29T16:34:17.945Z,25.45
2023-06-29T16:36:20.060Z,25.47
2023-06-29T16:38:22.509Z,25.31
2023-06-29T16:40:24.095Z,25.32
2023-06-29T16:42:25.937Z,25.38
2023-06-29T16:44:27.737Z,25.28
2023-06-29T16:46:29.580Z,25.26
2023-06-29T16:48:31.468Z,25.20
2023-06-29T16:50:33.166Z,25.08
2023-06-29T16:52:34.854Z,25.03
2023-06-29T16:54:36.374Z,24.96
2023-06-29T16:56:38.036Z,24.85
2023-06-29T16:58:39.692Z,24.80
2023-06-29T17:00:42.427Z,24.73
2023-06-29T17:02:44.155Z,24.67
2023-06-29T17:04:45.795Z,24.69
2023-06-29T17:06:47.590Z,24.71
2023-06-29T17:08:49.184Z,24.71
2023-06-29T17:10:53.961Z,24.69
2023-06-29T17:12:55.526Z,24.68
2023-06-29T17:14:57.470Z,24.65
2023-06-29T17:16:59.993Z,24.56
2023-06-29T17:19:01.668Z,24.53
2023-06-29T17:21:03.833Z,24.54
2023-06-29T17:23:05.449Z,24.48
2023-06-29T17:25:08.403Z,24.50
2023-06-29T17:27:11.151Z,24.48
2023-06-29T17:29:12.936Z,24.38
2023-06-29T17:31:14.672Z,24.35
2023-06-29T17:33:17.922Z,24.30
2023-06-29T17:35:19.473Z,24.28
2023-06-29T17:37:21.136Z,24.38
2023-06-29T17:39:22.969Z,24.46
2023-06-29T17:41:24.524Z,24.41
2023-06-29T17:43:26.285Z,24.42
2023-06-29T17:45:28.806Z,24.40
2023-06-29T17:47:30.485Z,24.44
2023-06-29T17:49:32.327Z,24.43
2023-06-29T17:51:33.918Z,24.37
2023-06-29T17:53:35.635Z,24.33
2023-06-29T17:55:37.225Z,24.41
2023-06-29T17:57:38.748Z,24.38
2023-06-29T17:59:40.287Z,24.33
2023-06-29T18:01:41.879Z,24.33
2023-06-29T18:03:43.818Z,24.37
2023-06-29T18:05:45.778Z,24.27
2023-06-29T18:07:47.675Z,24.20
2023-06-29T18:09:49.860Z,24.16
2023-06-29T18:11:53.521Z,24.18
2023-06-29T18:13:55.249Z,24.30
2023-06-29T18:15:56.913Z,24.34
2023-06-29T18:17:58.848Z,24.38
2023-06-29T18:20:01.483Z,24.34
2023-06-29T18:22:03.559Z,24.20
2023-06-29T18:24:05.593Z,24.24
2023-06-29T18:26:08.072Z,24.26
2023-06-29T18:28:09.755Z,24.25
2023-06-29T18:30:12.928Z,24.20
2023-06-29T18:32:14.641Z,24.09
2023-06-29T18:34:16.198Z,23.93
2023-06-29T18:36:17.820Z,23.81
2023-06-29T18:38:19.744Z,23.71
2023-06-29T18:40:25.456Z,23.64
2023-06-29T18:42:27.074Z,23.53
2023-06-29T18:44:29.082Z,23.39
2023-06-29T18:46:31.588Z,23.31
2023-06-29T18:48:33.851Z,23.21
2023-06-29T18:50:35.638Z,23.11
2023-06-29T18:52:37.187Z,23.00
2023-06-29T18:54:38.881Z,22.91
2023-06-29T18:56:40.473Z,22.81
2023-06-29T18:58:42.297Z,22.74
2023-06-29T19:00:46.631Z,22.71
2023-06-29T19:02:48.598Z,22.68
2023-06-29T19:04:50.862Z,22.69
2023-06-29T19:06:52.922Z,22.68
2023-06-29T19:08:55.271Z,22.69
2023-06-29T19:10:57.408Z,22.63
2023-06-29T19:12:58.989Z,22.58
2023-06-29T19:15:01.058Z,22.55
2023-06-29T19:17:02.597Z,22.46
2023-06-29T19:19:04.252Z,22.26
2023-06-29T19:21:06.034Z,22.05
2023-06-29T19:23:07.910Z,21.90
2023-06-29T19:25:10.278Z,21.76
2023-06-29T19:27:12.052Z,21.61
2023-06-29T19:29:14.767Z,21.45
2023-06-29T19:31:16.752Z,21.27
2023-06-29T19:33:18.464Z,21.13
2023-06-29T19:35:20.256Z,21.00
2023-06-29T19:37:25.065Z,20.71
2023-06-29T19:39:26.740Z,20.53
2023-06-29T19:41:28.651Z,20.43
2023-06-29T19:43:34.070Z,20.39
2023-06-29T19:45:36.326Z,20.30
2023-06-29T19:47:38.399Z,20.28
2023-06-29T19:49:40.534Z,20.47
2023-06-29T19:51:42.405Z,20.44
2023-06-29T19:53:45.102Z,20.13
2023-06-29T19:55:46.906Z,19.96
2023-06-29T19:57:48.832Z,20.01
2023-06-29T19:59:51.265Z,19.99
2023-06-29T20:01:52.822Z,19.88
2023-06-29T20:03:54.450Z,19.86
2023-06-29T20:05:56.122Z,19.89
2023-06-29T20:07:57.724Z,19.75
2023-06-29T20:09:59.334Z,19.66
2023-06-29T20:12:00.986Z,19.67
2023-06-29T20:14:02.802Z,19.69
2023-06-29T20:16:04.766Z,19.63
2023-06-29T20:18:06.527Z,19.69
2023-06-29T20:20:08.723Z,19.73
2023-06-29T20:22:11.293Z,19.60
2023-06-29T20:24:13.017Z,19.58
2023-06-29T20:26:14.597Z,19.64
2023-06-29T20:28:17.330Z,19.61
2023-06-29T20:30:18.981Z,19.66
2023-06-29T20:32:20.635Z,19.53
2023-06-29T20:34:22.529Z,19.58
2023-06-29T20:36:24.339Z,19.53
2023-06-29T20:38:26.018Z,19.49
2023-06-29T20:40:27.744Z,19.55
2023-06-29T20:42:29.658Z,19.59
2023-06-29T20:44:33.569Z,19.59
2023-06-29T20:46:35.452Z,19.59
2023-06-29T20:48:37.438Z,19.60
2023-06-29T20:50:39.191Z,19.59
2023-06-29T20:52:40.782Z,19.55
2023-06-29T20:54:42.365Z,19.50
2023-06-29T20:56:45.152Z,19.32
2023-06-29T20:58:47.039Z,19.13
2023-06-29T21:00:49.268Z,18.97
2023-06-29T21:02:51.831Z,19.01
2023-06-29T21:04:56.928Z,18.97
2023-06-29T21:06:58.755Z,19.02
2023-06-29T21:09:00.579Z,19.01
2023-06-29T21:11:02.735Z,18.85
2023-06-29T21:13:04.283Z,18.89
2023-06-29T21:15:06.802Z,18.88
2023-06-29T21:17:09.748Z,18.79
2023-06-29T21:19:15.938Z,18.72
2023-06-29T21:21:17.788Z,18.51
2023-06-29T21:23:19.805Z,18.59
2023-06-29T21:25:22.202Z,18.50
2023-06-29T21:27:23.992Z,18.54
2023-06-29T21:29:41.540Z,18.53
2023-06-29T21:31:45.094Z,18.56
2023-06-29T21:33:46.891Z,18.59
2023-06-29T21:35:48.685Z,18.56
2023-06-29T21:37:50.550Z,18.39
2023-06-29T21:39:52.120Z,18.18
2023-06-29T21:41:53.870Z,18.13
2023-06-29T21:43:55.727Z,18.25
2023-06-29T21:45:57.298Z,18.34
2023-06-29T21:47:59.197Z,18.42
2023-06-29T21:50:01.040Z,18.37
2023-06-29T21:52:02.636Z,18.44
2023-06-29T21:54:05.448Z,18.47
2023-06-29T21:56:21.246Z,18.51
2023-06-29T21:58:28.000Z,18.51
2023-06-29T22:00:30.165Z,18.52
2023-06-29T22:02:31.950Z,18.49
2023-06-29T22:04:33.541Z,18.46
2023-06-29T22:06:35.325Z,18.42
2023-06-29T22:08:36.877Z,18.36
2023-06-29T22:10:38.563Z,18.32
2023-06-29T22:12:44.039Z,18.26
2023-06-29T22:14:49.432Z,18.22
2023-06-29T22:16:52.477Z,18.15
2023-06-29T22:18:54.102Z,18.01
2023-06-29T22:20:55.720Z,17.98
2023-06-29T22:22:57.436Z,17.92
2023-06-29T22:24:59.173Z,17.88
2023-06-29T22:27:00.802Z,17.83
2023-06-29T22:29:02.906Z,17.80
2023-06-29T22:31:04.496Z,17.74
2023-06-29T22:33:06.245Z,17.70
2023-06-29T22:35:08.403Z,17.65
2023-06-29T22:37:09.863Z,17.60
2023-06-29T22:39:11.469Z,17.58
2023-06-29T22:41:14.870Z,17.55
2023-06-29T22:43:16.500Z,17.49
2023-06-29T22:45:19.075Z,17.47
2023-06-29T22:47:20.794Z,17.40
2023-06-29T22:49:22.671Z,17.36
2023-06-29T22:51:27.386Z,17.30
2023-06-29T22:53:29.624Z,17.25
2023-06-29T22:55:31.325Z,17.21
2023-06-29T22:57:33.227Z,17.16
2023-06-29T22:59:34.830Z,17.11
2023-06-29T23:01:37.258Z,17.10
2023-06-29T23:03:39.361Z,17.06
2023-06-29T23:05:41.104Z,17.03
2023-06-29T23:07:45.281Z,17.03
2023-06-29T23:09:47.061Z,16.92
2023-06-29T23:11:50.405Z,16.94
2023-06-29T23:13:52.176Z,16.91
2023-06-29T23:15:53.775Z,16.88
2023-06-29T23:17:55.572Z,16.84
2023-06-29T23:19:58.176Z,16.81
2023-06-29T23:22:01.008Z,16.77
2023-06-29T23:24:03.912Z,16.73
2023-06-29T23:26:07.482Z,16.68
2023-06-29T23:28:10.745Z,16.57
2023-06-29T23:30:14.247Z,16.56
2023-06-29T23:32:15.879Z,16.54
2023-06-29T23:34:17.820Z,16.47
2023-06-29T23:36:22.728Z,16.46
2023-06-29T23:38:24.464Z,16.45
2023-06-29T23:40:26.971Z,16.44
2023-06-29T23:42:28.830Z,16.41
2023-06-29T23:44:30.711Z,16.38
2023-06-29T23:46:59.387Z,16.35
2023-06-29T23:49:01.190Z,16.30
2023-06-29T23:51:02.827Z,16.26
2023-06-29T23:53:05.015Z,16.25
2023-06-29T23:55:09.265Z,16.24
2023-06-29T23:57:10.821Z,16.20
2023-06-29T23:59:12.731Z,16.16
